Time;durP1;ratioP1;P1;durP2;ratioP2;P2;SDS_P1;SDS_P2;PMS_P1;PMS_P2;Temp;Humidity;BMP_temperature;BMP_pressure;BME280_temperature;BME280_humidity;BME280_pressure;Samples;Min_cycle;Max_cycle;Signal;HPM_P1;HPM_P2
2022/03/22 00:01:34;;;;;;;9.27;6.97;;;;;;;;;;4947134;28;20442;-53
2022/03/22 00:04:02;;;;;;;12.10;7.80;;;;;;;;;;4949412;28;20850;-54
2022/03/22 00:06:29;;;;;;;11.90;7.13;;;;;;;;;;4945397;28;20569;-55
2022/03/22 00:08:56;;;;;;;10.20;7.70;;;;;;;;;;4944209;28;20631;-54
2022/03/22 00:11:34;;;;;;;10.90;7.33;;;;;;;;;;4944668;28;20956;-55
2022/03/22 00:14:00;;;;;;;13.33;8.30;;;;;;;;;;4948508;28;20477;-55
2022/03/22 00:16:26;;;;;;;14.70;8.20;;;;;;;;;;4947689;28;20448;-54
2022/03/22 00:18:52;;;;;;;12.20;8.33;;;;;;;;;;4943198;28;20904;-53
2022/03/22 00:21:19;;;;;;;12.63;7.50;;;;;;;;;;4947311;28;20490;-55
2022/03/22 00:23:46;;;;;;;11.17;8.20;;;;;;;;;;4945718;28;20454;-54
2022/03/22 00:26:12;;;;;;;10.43;6.23;;;;;;;;;;4949277;28;20970;-54
2022/03/22 00:28:39;;;;;;;10.27;7.30;;;;;;;;;;4944435;28;20450;-53
2022/03/22 00:31:07;;;;;;;10.73;6.57;;;;;;;;;;4944294;28;20418;-54
2022/03/22 00:33:33;;;;;;;9.93;6.93;;;;;;;;;;4949458;28;20464;-55
2022/03/22 00:35:59;;;;;;;12.47;8.50;;;;;;;;;;4946636;28;20472;-56
2022/03/22 00:38:26;;;;;;;10.10;7.83;;;;;;;;;;4948338;28;20466;-53
2022/03/22 00:40:52;;;;;;;9.83;7.30;;;;;;;;;;4947391;28;20430;-54
2022/03/22 00:43:18;;;;;;;11.00;7.90;;;;;;;;;;4946128;28;20851;-53
2022/03/22 00:45:44;;;;;;;12.40;7.70;;;;;;;;;;4946690;28;20453;-53
2022/03/22 00:48:14;;;;;;;8.60;6.53;;;;;;;;;;4944912;28;20525;-53
2022/03/22 00:50:41;;;;;;;12.13;6.87;;;;;;;;;;4943353;28;20445;-53
2022/03/22 00:53:07;;;;;;;14.23;7.43;;;;;;;;;;4943754;28;20768;-54
2022/03/22 00:55:34;;;;;;;13.90;7.43;;;;;;;;;;4947664;28;20482;-56
2022/03/22 00:58:03;;;;;;;13.47;7.70;;;;;;;;;;4942917;28;20442;-54
2022/03/22 01:00:29;;;;;;;12.33;7.13;;;;;;;;;;4951538;28;20474;-54
2022/03/22 01:02:56;;;;;;;12.33;7.73;;;;;;;;;;4949266;28;20447;-54
2022/03/22 01:05:23;;;;;;;12.00;7.57;;;;;;;;;;4943104;28;20542;-53
2022/03/22 01:07:58;;;;;;;16.43;9.27;;;;;;;;;;4944935;28;20482;-55
2022/03/22 01:10:25;;;;;;;16.13;8.13;;;;;;;;;;4944183;28;20442;-54
2022/03/22 01:12:52;;;;;;;11.77;7.50;;;;;;;;;;4942342;28;20454;-55
2022/03/22 01:15:20;;;;;;;11.30;6.37;;;;;;;;;;4942177;28;20482;-54
2022/03/22 01:17:46;;;;;;;10.10;6.87;;;;;;;;;;4944235;28;20852;-54
2022/03/22 01:20:13;;;;;;;14.10;7.33;;;;;;;;;;4943864;28;20702;-54
2022/03/22 01:22:39;;;;;;;10.63;7.70;;;;;;;;;;4943324;28;20454;-53
2022/03/22 01:25:07;;;;;;;12.70;7.50;;;;;;;;;;4945689;28;20796;-53
2022/03/22 01:27:36;;;;;;;12.97;7.57;;;;;;;;;;4941951;28;20652;-55
2022/03/22 01:30:02;;;;;;;10.70;7.33;;;;;;;;;;4942712;28;20568;-55
2022/03/22 01:32:28;;;;;;;8.60;6.93;;;;;;;;;;4941129;28;20442;-54
2022/03/22 01:34:54;;;;;;;10.40;6.47;;;;;;;;;;4944827;28;21086;-55
2022/03/22 01:37:23;;;;;;;10.80;7.70;;;;;;;;;;4945091;28;20461;-59
2022/03/22 01:39:53;;;;;;;15.00;8.07;;;;;;;;;;4941765;28;20523;-53
2022/03/22 01:42:19;;;;;;;14.60;7.97;;;;;;;;;;4945139;28;20525;-54
2022/03/22 01:44:45;;;;;;;13.30;7.07;;;;;;;;;;4946828;28;20438;-53
2022/03/22 01:47:11;;;;;;;10.60;7.40;;;;;;;;;;4943363;28;20453;-53
2022/03/22 01:49:37;;;;;;;11.80;8.67;;;;;;;;;;4943077;28;20443;-53
2022/03/22 01:52:04;;;;;;;11.40;7.70;;;;;;;;;;4941703;28;20466;-53
2022/03/22 01:54:32;;;;;;;11.80;8.70;;;;;;;;;;4942668;28;20560;-57
2022/03/22 01:57:10;;;;;;;14.00;7.13;;;;;;;;;;4946907;28;20447;-55
2022/03/22 01:59:41;;;;;;;8.63;7.70;;;;;;;;;;4941488;28;20560;-54
2022/03/22 02:07:38;;;;;;;11.07;7.37;;;;;;;;;;4944095;28;20448;-54
2022/03/22 02:10:05;;;;;;;15.23;7.97;;;;;;;;;;4945569;28;20776;-53
2022/03/22 02:12:31;;;;;;;12.00;7.33;;;;;;;;;;4941082;28;20481;-53
2022/03/22 02:14:57;;;;;;;15.10;8.07;;;;;;;;;;4942351;28;21260;-53
2022/03/22 02:17:23;;;;;;;13.10;7.77;;;;;;;;;;4941690;28;20439;-53
2022/03/22 02:19:49;;;;;;;12.73;8.90;;;;;;;;;;4943438;28;20443;-53
2022/03/22 02:22:18;;;;;;;14.43;8.30;;;;;;;;;;4941715;28;20451;-54
2022/03/22 02:24:47;;;;;;;10.70;7.60;;;;;;;;;;4943138;28;20815;-54
2022/03/22 02:27:13;;;;;;;10.70;7.20;;;;;;;;;;4942428;28;20445;-53
2022/03/22 02:29:39;;;;;;;10.77;7.13;;;;;;;;;;4945012;28;20439;-54
2022/03/22 02:32:09;;;;;;;12.20;7.67;;;;;;;;;;4940259;28;20517;-54
2022/03/22 02:34:37;;;;;;;9.73;7.97;;;;;;;;;;4943673;28;20525;-55
2022/03/22 02:37:04;;;;;;;14.13;9.20;;;;;;;;;;4947255;28;20438;-54
2022/03/22 02:39:31;;;;;;;12.87;8.47;;;;;;;;;;4943177;28;20466;-54
2022/03/22 02:41:57;;;;;;;11.17;8.37;;;;;;;;;;4943260;28;20443;-54
2022/03/22 02:44:23;;;;;;;12.80;9.23;;;;;;;;;;4942829;28;20532;-54
2022/03/22 02:46:50;;;;;;;12.87;8.30;;;;;;;;;;4942710;28;20431;-54
2022/03/22 02:49:16;;;;;;;10.50;8.43;;;;;;;;;;4943342;28;20815;-54
2022/03/22 02:51:42;;;;;;;12.60;8.10;;;;;;;;;;4940944;28;21034;-54
2022/03/22 02:54:09;;;;;;;12.07;8.47;;;;;;;;;;4941649;28;20479;-54
2022/03/22 02:56:36;;;;;;;11.97;8.50;;;;;;;;;;4944071;28;20770;-55
2022/03/22 02:59:02;;;;;;;11.87;7.87;;;;;;;;;;4941890;28;20971;-54
2022/03/22 03:01:34;;;;;;;12.87;8.60;;;;;;;;;;4943485;28;21584;-55
2022/03/22 03:04:01;;;;;;;8.90;7.80;;;;;;;;;;4940175;28;21461;-55
2022/03/22 03:06:33;;;;;;;14.50;8.27;;;;;;;;;;4944118;28;20454;-55
2022/03/22 03:09:00;;;;;;;12.97;8.17;;;;;;;;;;4944364;28;20545;-53
2022/03/22 03:11:26;;;;;;;12.03;8.20;;;;;;;;;;4936239;28;20814;-53
2022/03/22 03:16:43;;;;;;;9.80;7.97;;;;;;;;;;4943477;28;20810;-53
2022/03/22 03:19:09;;;;;;;11.90;8.53;;;;;;;;;;4941560;28;20487;-53
2022/03/22 03:21:35;;;;;;;16.63;10.27;;;;;;;;;;4941752;28;20948;-53
2022/03/22 03:24:01;;;;;;;12.20;8.57;;;;;;;;;;4942084;28;20922;-53
2022/03/22 03:26:30;;;;;;;11.53;8.43;;;;;;;;;;4943519;28;20594;-53
2022/03/22 03:28:57;;;;;;;11.17;8.43;;;;;;;;;;4941518;28;20458;-54
2022/03/22 03:31:32;;;;;;;12.70;8.77;;;;;;;;;;4941073;28;20451;-54
2022/03/22 03:34:00;;;;;;;13.27;8.80;;;;;;;;;;4939663;28;20542;-53
2022/03/22 03:36:29;;;;;;;12.03;8.07;;;;;;;;;;4940246;28;20692;-54
2022/03/22 03:38:56;;;;;;;12.90;8.37;;;;;;;;;;4941024;28;20186;-54
2022/03/22 03:47:07;;;;;;;13.30;7.90;;;;;;;;;;4941477;28;20501;-54
2022/03/22 03:49:34;;;;;;;15.23;9.47;;;;;;;;;;4942616;28;20439;-52
2022/03/22 03:52:00;;;;;;;14.40;8.73;;;;;;;;;;4939574;28;20620;-54
2022/03/22 03:54:26;;;;;;;13.10;8.00;;;;;;;;;;4942533;28;20499;-53
2022/03/22 03:56:52;;;;;;;10.77;8.77;;;;;;;;;;4943477;28;20493;-55
2022/03/22 03:59:20;;;;;;;17.40;9.93;;;;;;;;;;4942628;28;20455;-54
2022/03/22 04:01:48;;;;;;;12.90;9.00;;;;;;;;;;4950145;28;20437;-53
2022/03/22 04:04:14;;;;;;;11.00;7.10;;;;;;;;;;4946582;28;21266;-52
2022/03/22 04:06:40;;;;;;;10.27;7.70;;;;;;;;;;4946017;28;20538;-53
2022/03/22 04:09:06;;;;;;;12.50;8.17;;;;;;;;;;4947602;28;20940;-54
2022/03/22 04:11:40;;;;;;;16.40;9.93;;;;;;;;;;4949736;28;20988;-54
2022/03/22 04:14:08;;;;;;;13.00;8.33;;;;;;;;;;4960731;28;20481;-55
2022/03/22 04:16:36;;;;;;;15.17;9.47;;;;;;;;;;4948501;28;20461;-54
2022/03/22 04:19:02;;;;;;;13.10;8.90;;;;;;;;;;4942992;28;20544;-54
2022/03/22 04:21:31;;;;;;;16.90;8.90;;;;;;;;;;4947356;28;20465;-53
2022/03/22 04:23:58;;;;;;;11.43;7.80;;;;;;;;;;4949724;28;20439;-54
2022/03/22 04:26:25;;;;;;;10.80;8.20;;;;;;;;;;4948481;28;20506;-54
2022/03/22 04:34:26;;;;;;;15.60;9.40;;;;;;;;;;4943234;28;20541;-53
2022/03/22 04:36:58;;;;;;;16.67;9.10;;;;;;;;;;4947920;28;20437;-54
2022/03/22 04:39:27;;;;;;;14.23;9.07;;;;;;;;;;4944215;28;20438;-54
2022/03/22 04:41:53;;;;;;;13.33;8.00;;;;;;;;;;4948478;28;20430;-52
2022/03/22 04:44:21;;;;;;;14.63;9.03;;;;;;;;;;4943330;28;20479;-53
2022/03/22 04:46:47;;;;;;;15.57;9.13;;;;;;;;;;4946364;28;22379;-53
2022/03/22 04:49:14;;;;;;;14.80;8.13;;;;;;;;;;4944882;28;20518;-54
2022/03/22 04:57:16;;;;;;;12.83;8.60;;;;;;;;;;4942226;28;20530;-52
2022/03/22 04:59:43;;;;;;;12.73;8.67;;;;;;;;;;4944913;28;21052;-54
2022/03/22 05:02:11;;;;;;;15.57;8.77;;;;;;;;;;4942335;28;20551;-54
2022/03/22 05:04:48;;;;;;;15.60;9.63;;;;;;;;;;4947658;28;20536;-54
2022/03/22 05:07:15;;;;;;;12.17;8.23;;;;;;;;;;4946426;28;20434;-53
2022/03/22 05:09:42;;;;;;;13.10;9.37;;;;;;;;;;4941934;28;20439;-54
2022/03/22 05:12:13;;;;;;;13.77;8.80;;;;;;;;;;4943591;28;20438;-54
2022/03/22 05:14:42;;;;;;;13.40;9.23;;;;;;;;;;4943094;28;20490;-55
2022/03/22 05:17:10;;;;;;;12.27;9.20;;;;;;;;;;4945021;28;21076;-55
2022/03/22 05:19:36;;;;;;;15.97;9.10;;;;;;;;;;4940000;28;20469;-55
2022/03/22 05:22:02;;;;;;;13.73;8.33;;;;;;;;;;4942873;28;20757;-54
2022/03/22 05:24:53;;;;;;;13.30;10.10;;;;;;;;;;4945734;28;20817;-56
2022/03/22 05:27:25;;;;;;;9.53;7.60;;;;;;;;;;4939769;28;20489;-55
2022/03/22 05:29:51;;;;;;;13.00;9.13;;;;;;;;;;4946069;28;20430;-56
2022/03/22 05:32:17;;;;;;;14.80;9.50;;;;;;;;;;4941835;28;20454;-55
2022/03/22 05:34:44;;;;;;;14.67;8.47;;;;;;;;;;4935554;28;20821;-55
2022/03/22 05:37:15;;;;;;;17.10;9.73;;;;;;;;;;4941731;28;20187;-54
2022/03/22 05:39:46;;;;;;;18.33;9.73;;;;;;;;;;4924846;28;21224;-54
2022/03/22 05:42:17;;;;;;;15.63;10.07;;;;;;;;;;4939523;28;20518;-57
2022/03/22 05:45:04;;;;;;;20.83;8.60;;;;;;;;;;4939525;28;20615;-55
2022/03/22 05:47:37;;;;;;;13.80;9.67;;;;;;;;;;4942985;28;21004;-54
2022/03/22 05:50:05;;;;;;;12.67;9.80;;;;;;;;;;4945584;28;20442;-56
2022/03/22 05:52:33;;;;;;;12.30;8.50;;;;;;;;;;4940851;28;20490;-54
2022/03/22 05:55:01;;;;;;;12.53;9.37;;;;;;;;;;4941768;28;20580;-56
2022/03/22 05:57:27;;;;;;;19.60;9.27;;;;;;;;;;4939766;28;21055;-56
2022/03/22 05:59:53;;;;;;;13.80;8.80;;;;;;;;;;4936404;28;20442;-55
2022/03/22 06:02:19;;;;;;;18.53;10.03;;;;;;;;;;4936655;28;20442;-53
2022/03/22 06:04:45;;;;;;;14.77;10.00;;;;;;;;;;4933384;28;20447;-56
2022/03/22 06:07:11;;;;;;;17.83;10.20;;;;;;;;;;4942841;28;20490;-55
2022/03/22 06:09:37;;;;;;;14.70;9.60;;;;;;;;;;4939812;28;20447;-55
2022/03/22 06:12:06;;;;;;;13.10;10.20;;;;;;;;;;4948940;28;20520;-56
2022/03/22 06:14:32;;;;;;;14.60;8.80;;;;;;;;;;4945542;28;20475;-56
2022/03/22 06:16:59;;;;;;;13.03;9.30;;;;;;;;;;4943954;28;21003;-55
2022/03/22 06:19:26;;;;;;;13.53;9.53;;;;;;;;;;4945609;28;20983;-55
2022/03/22 06:21:53;;;;;;;14.30;10.00;;;;;;;;;;4943649;28;20427;-55
2022/03/22 06:24:19;;;;;;;14.07;10.13;;;;;;;;;;4946206;28;20199;-56
2022/03/22 06:26:45;;;;;;;15.90;9.53;;;;;;;;;;4947356;28;20436;-55
2022/03/22 06:29:12;;;;;;;11.87;8.80;;;;;;;;;;4944349;28;21209;-56
2022/03/22 06:31:38;;;;;;;15.90;11.20;;;;;;;;;;4947315;28;20714;-56
2022/03/22 06:34:04;;;;;;;14.63;9.40;;;;;;;;;;4944143;28;20508;-56
2022/03/22 06:36:31;;;;;;;20.17;10.37;;;;;;;;;;4948740;28;20442;-55
2022/03/22 06:38:56;;;;;;;19.00;11.03;;;;;;;;;;4945778;28;23530;-55
2022/03/22 06:41:26;;;;;;;14.40;8.87;;;;;;;;;;4938096;28;20430;-58
2022/03/22 06:43:52;;;;;;;14.70;10.13;;;;;;;;;;4930884;28;20801;-57
2022/03/22 06:46:18;;;;;;;11.20;9.23;;;;;;;;;;4948482;28;20979;-56
2022/03/22 06:48:46;;;;;;;14.70;9.67;;;;;;;;;;4952039;28;20443;-54
2022/03/22 06:51:23;;;;;;;19.97;11.17;;;;;;;;;;4945617;28;20492;-56
2022/03/22 06:53:51;;;;;;;16.70;10.53;;;;;;;;;;4945196;28;20470;-55
2022/03/22 06:56:19;;;;;;;15.57;10.43;;;;;;;;;;4948009;28;20450;-55
2022/03/22 06:58:50;;;;;;;19.70;11.93;;;;;;;;;;4936723;28;20438;-55
2022/03/22 07:01:16;;;;;;;20.20;11.07;;;;;;;;;;4972412;28;20541;-55
2022/03/22 07:03:42;;;;;;;16.60;9.50;;;;;;;;;;4934999;28;20520;-54
2022/03/22 07:06:08;;;;;;;13.17;9.90;;;;;;;;;;4927778;28;20846;-54
2022/03/22 07:08:36;;;;;;;17.13;11.67;;;;;;;;;;4925507;28;20661;-55
2022/03/22 07:13:52;;;;;;;16.27;10.27;;;;;;;;;;4924965;28;20557;-55
2022/03/22 07:16:19;;;;;;;24.33;10.73;;;;;;;;;;4922757;28;20455;-55
2022/03/22 07:18:45;;;;;;;16.97;11.57;;;;;;;;;;4935062;28;20439;-54
2022/03/22 07:21:11;;;;;;;12.97;8.50;;;;;;;;;;4938554;28;20873;-55
2022/03/22 07:23:39;;;;;;;15.73;9.80;;;;;;;;;;4938075;28;20438;-53
2022/03/22 07:26:05;;;;;;;17.97;10.70;;;;;;;;;;4948284;28;21186;-54
2022/03/22 07:28:31;;;;;;;15.27;10.90;;;;;;;;;;4939872;28;20450;-55
2022/03/22 07:30:58;;;;;;;18.33;10.90;;;;;;;;;;4934254;28;20466;-55
2022/03/22 07:33:25;;;;;;;12.90;10.80;;;;;;;;;;4942194;28;20782;-56
2022/03/22 07:35:57;;;;;;;22.77;14.87;;;;;;;;;;4945902;28;20521;-55
2022/03/22 07:38:23;;;;;;;17.07;10.57;;;;;;;;;;4947513;28;21149;-55
2022/03/22 07:40:49;;;;;;;17.60;10.83;;;;;;;;;;4947065;28;20943;-57
2022/03/22 07:43:16;;;;;;;22.70;13.07;;;;;;;;;;4943640;28;20441;-55
2022/03/22 07:45:47;;;;;;;18.77;12.50;;;;;;;;;;4944943;28;20454;-55
2022/03/22 07:48:19;;;;;;;13.77;11.80;;;;;;;;;;4947091;28;20787;-56
2022/03/22 07:53:32;;;;;;;17.17;11.20;;;;;;;;;;4943659;28;20966;-55
2022/03/22 07:55:59;;;;;;;21.23;11.77;;;;;;;;;;4944888;28;20536;-55
2022/03/22 07:58:25;;;;;;;17.40;12.53;;;;;;;;;;4940837;28;20434;-56
2022/03/22 08:00:51;;;;;;;18.47;12.00;;;;;;;;;;4940095;28;20434;-55
2022/03/22 08:03:28;;;;;;;22.90;12.60;;;;;;;;;;4944774;28;20438;-55
2022/03/22 08:06:00;;;;;;;28.47;12.57;;;;;;;;;;4944973;28;21130;-55
2022/03/22 08:08:37;;;;;;;22.80;12.47;;;;;;;;;;4946073;28;20457;-55
2022/03/22 08:11:20;;;;;;;21.70;12.23;;;;;;;;;;4946457;28;20532;-55
2022/03/22 08:13:51;;;;;;;17.57;11.20;;;;;;;;;;4943963;28;20475;-56
2022/03/22 08:16:22;;;;;;;18.00;12.67;;;;;;;;;;4942811;28;20441;-55
2022/03/22 08:18:49;;;;;;;17.87;11.60;;;;;;;;;;4947105;28;20438;-54
2022/03/22 08:21:16;;;;;;;21.50;13.20;;;;;;;;;;4949196;28;20442;-59
2022/03/22 08:23:45;;;;;;;14.53;10.60;;;;;;;;;;4948845;28;20473;-55
2022/03/22 08:26:13;;;;;;;24.30;15.17;;;;;;;;;;4946193;28;20578;-55
2022/03/22 08:28:39;;;;;;;17.97;12.80;;;;;;;;;;4944017;28;20433;-55
2022/03/22 08:31:06;;;;;;;19.60;13.60;;;;;;;;;;4946881;28;20446;-55
2022/03/22 08:33:32;;;;;;;19.40;12.10;;;;;;;;;;4947958;28;20426;-55
2022/03/22 08:35:58;;;;;;;20.97;14.43;;;;;;;;;;4948096;28;20441;-56
2022/03/22 08:38:24;;;;;;;16.50;11.47;;;;;;;;;;4949502;28;21555;-57
2022/03/22 08:40:51;;;;;;;26.00;12.63;;;;;;;;;;4948302;28;20434;-56
2022/03/22 08:43:19;;;;;;;20.93;12.93;;;;;;;;;;4944583;28;21025;-55
2022/03/22 08:45:45;;;;;;;18.30;12.60;;;;;;;;;;4941129;28;20446;-55
2022/03/22 08:48:12;;;;;;;19.67;13.50;;;;;;;;;;4945952;28;20439;-55
2022/03/22 08:50:39;;;;;;;17.50;11.77;;;;;;;;;;4943244;28;20700;-58
2022/03/22 08:53:06;;;;;;;20.50;13.20;;;;;;;;;;4942673;28;20445;-55
2022/03/22 08:55:36;;;;;;;18.77;13.40;;;;;;;;;;4940217;28;20502;-56
2022/03/22 08:58:06;;;;;;;20.93;12.77;;;;;;;;;;4938077;28;20446;-57
2022/03/22 09:00:35;;;;;;;19.23;11.80;;;;;;;;;;4943737;28;20446;-55
2022/03/22 09:03:01;;;;;;;19.43;12.27;;;;;;;;;;4938021;28;20431;-55
2022/03/22 09:08:11;;;;;;;21.80;12.10;;;;;;;;;;4940611;28;20860;-55
2022/03/22 09:10:39;;;;;;;15.70;12.87;;;;;;;;;;4941411;28;21276;-55
2022/03/22 09:13:05;;;;;;;16.73;10.80;;;;;;;;;;4937342;28;20442;-53
2022/03/22 09:15:33;;;;;;;18.73;13.43;;;;;;;;;;4941317;28;20478;-57
2022/03/22 09:17:59;;;;;;;19.47;14.23;;;;;;;;;;4938919;28;20521;-57
2022/03/22 09:20:25;;;;;;;18.37;12.97;;;;;;;;;;4942010;28;21063;-55
2022/03/22 09:22:51;;;;;;;16.87;12.10;;;;;;;;;;4937847;28;20454;-56
2022/03/22 09:25:18;;;;;;;20.77;12.30;;;;;;;;;;4940550;28;20978;-56
2022/03/22 09:27:44;;;;;;;19.73;13.40;;;;;;;;;;4939151;28;20447;-55
2022/03/22 09:30:10;;;;;;;16.57;11.70;;;;;;;;;;4942113;28;20557;-56
2022/03/22 09:32:36;;;;;;;15.73;12.50;;;;;;;;;;4939735;28;20485;-56
2022/03/22 09:35:06;;;;;;;15.03;11.83;;;;;;;;;;4935982;28;22928;-56
2022/03/22 09:37:32;;;;;;;22.93;12.47;;;;;;;;;;4935238;28;20453;-55
2022/03/22 09:39:58;;;;;;;19.57;14.70;;;;;;;;;;4940627;28;20987;-55
2022/03/22 09:42:24;;;;;;;16.80;12.73;;;;;;;;;;4939359;28;20438;-57
2022/03/22 09:44:50;;;;;;;19.27;13.57;;;;;;;;;;4940052;28;20449;-56
2022/03/22 09:47:16;;;;;;;15.77;12.47;;;;;;;;;;4942811;28;20470;-55
2022/03/22 09:49:42;;;;;;;18.80;13.07;;;;;;;;;;4941015;28;20459;-55
2022/03/22 09:52:09;;;;;;;19.00;12.90;;;;;;;;;;4934023;28;20775;-55
2022/03/22 09:54:35;;;;;;;17.10;12.73;;;;;;;;;;4940833;28;20883;-54
2022/03/22 09:57:04;;;;;;;17.63;12.60;;;;;;;;;;4937460;28;20449;-56
2022/03/22 09:59:34;;;;;;;18.50;13.50;;;;;;;;;;4935792;28;20453;-56
2022/03/22 10:02:01;;;;;;;15.77;12.90;;;;;;;;;;4932859;28;20450;-55
2022/03/22 10:04:49;;;;;;;19.47;13.67;;;;;;;;;;4938250;28;20458;-57
2022/03/22 10:07:18;;;;;;;17.87;12.93;;;;;;;;;;4938851;28;20845;-55
2022/03/22 10:09:50;;;;;;;19.10;12.47;;;;;;;;;;4941634;28;20493;-55
2022/03/22 10:12:25;;;;;;;18.27;13.67;;;;;;;;;;4939157;28;20509;-55
2022/03/22 10:14:51;;;;;;;18.60;13.77;;;;;;;;;;4938630;28;20481;-55
2022/03/22 10:17:20;;;;;;;16.37;13.23;;;;;;;;;;4939314;28;20500;-55
2022/03/22 10:19:55;;;;;;;18.47;13.37;;;;;;;;;;4939065;28;20438;-55
2022/03/22 10:22:27;;;;;;;15.93;14.23;;;;;;;;;;4942153;28;20564;-56
2022/03/22 10:24:55;;;;;;;16.00;12.90;;;;;;;;;;4924448;28;20994;-56
2022/03/22 10:27:24;;;;;;;17.10;13.30;;;;;;;;;;4939528;28;20437;-56
2022/03/22 10:29:51;;;;;;;17.57;12.80;;;;;;;;;;4937949;28;20512;-56
2022/03/22 10:32:19;;;;;;;18.73;13.23;;;;;;;;;;4936236;28;20431;-57
2022/03/22 10:34:47;;;;;;;19.97;12.83;;;;;;;;;;4941647;28;20677;-57
2022/03/22 10:37:32;;;;;;;18.83;14.00;;;;;;;;;;4929152;28;20485;-59
2022/03/22 10:39:58;;;;;;;18.77;13.77;;;;;;;;;;4940109;28;20489;-57
2022/03/22 10:42:27;;;;;;;18.27;14.27;;;;;;;;;;4938011;28;20429;-60
2022/03/22 10:44:58;;;;;;;19.00;14.07;;;;;;;;;;4936860;28;20461;-55
2022/03/22 10:47:27;;;;;;;20.57;14.27;;;;;;;;;;4939670;28;20934;-56
2022/03/22 10:50:05;;;;;;;18.97;13.97;;;;;;;;;;4941031;28;21380;-57
2022/03/22 10:52:31;;;;;;;16.53;11.87;;;;;;;;;;4920773;28;20841;-57
2022/03/22 10:54:57;;;;;;;21.27;13.60;;;;;;;;;;4934933;28;20490;-56
2022/03/22 10:57:32;;;;;;;20.13;13.40;;;;;;;;;;4939552;28;20497;-54
2022/03/22 10:59:59;;;;;;;15.87;11.57;;;;;;;;;;4937503;28;20194;-56
2022/03/22 11:02:25;;;;;;;22.60;13.10;;;;;;;;;;4936596;28;20443;-56
2022/03/22 11:04:52;;;;;;;16.70;12.70;;;;;;;;;;4935320;28;21074;-55
2022/03/22 11:07:18;;;;;;;17.43;11.60;;;;;;;;;;4935604;28;20934;-56
2022/03/22 11:09:43;;;;;;;17.10;12.47;;;;;;;;;;4938958;28;20423;-56
2022/03/22 11:12:10;;;;;;;23.83;12.30;;;;;;;;;;4938011;28;20453;-55
2022/03/22 11:14:36;;;;;;;16.90;12.73;;;;;;;;;;4938741;28;20482;-56
2022/03/22 11:17:03;;;;;;;19.17;13.53;;;;;;;;;;4937212;28;20449;-56
2022/03/22 11:19:29;;;;;;;17.33;12.40;;;;;;;;;;4940298;28;20514;-57
2022/03/22 11:22:03;;;;;;;13.43;10.70;;;;;;;;;;4940952;28;20446;-56
2022/03/22 11:24:29;;;;;;;16.90;11.70;;;;;;;;;;4933792;28;20990;-57
2022/03/22 11:26:56;;;;;;;15.10;12.00;;;;;;;;;;4943357;28;20438;-55
2022/03/22 11:29:22;;;;;;;16.33;12.90;;;;;;;;;;4970563;28;20530;-56
2022/03/22 11:34:09;;;;;;;15.20;11.70;;;;;;;;;;4934432;28;20489;-57
2022/03/22 11:34:34;;;;;;;14.73;12.87;;;;;;;;;;4941433;28;20600;-55
2022/03/22 11:37:01;;;;;;;15.60;12.20;;;;;;;;;;4937019;28;20442;-56
2022/03/22 11:42:16;;;;;;;19.70;14.03;;;;;;;;;;4939976;28;20606;-64
2022/03/22 11:44:42;;;;;;;15.53;13.83;;;;;;;;;;4942017;28;20449;-56
2022/03/22 11:47:12;;;;;;;18.47;15.53;;;;;;;;;;4941386;28;22649;-56
2022/03/22 11:50:18;;;;;;;16.37;14.00;;;;;;;;;;4943550;28;20473;-56
2022/03/22 11:52:44;;;;;;;17.17;14.13;;;;;;;;;;4921111;28;20438;-56
2022/03/22 11:55:11;;;;;;;18.27;14.80;;;;;;;;;;4919773;28;20482;-56
2022/03/22 11:57:40;;;;;;;17.57;15.53;;;;;;;;;;4924986;28;20472;-55
2022/03/22 12:00:07;;;;;;;16.73;14.90;;;;;;;;;;4940249;28;20438;-56
2022/03/22 12:02:51;;;;;;;16.60;14.80;;;;;;;;;;4938467;28;20913;-56
2022/03/22 12:05:22;;;;;;;18.70;14.57;;;;;;;;;;4942305;28;20446;-57
2022/03/22 12:07:49;;;;;;;18.87;14.70;;;;;;;;;;4942147;28;20944;-58
2022/03/22 12:10:24;;;;;;;18.63;14.90;;;;;;;;;;4938304;28;20446;-57
2022/03/22 12:12:50;;;;;;;16.93;15.07;;;;;;;;;;4936186;28;21444;-57
2022/03/22 12:15:17;;;;;;;20.17;16.23;;;;;;;;;;4939333;28;20861;-56
2022/03/22 12:17:43;;;;;;;20.87;17.57;;;;;;;;;;4939547;28;20447;-56
2022/03/22 12:20:11;;;;;;;20.20;15.20;;;;;;;;;;4938529;28;20447;-55
2022/03/22 12:22:43;;;;;;;19.87;16.07;;;;;;;;;;4943306;28;20576;-56
2022/03/22 12:25:15;;;;;;;16.60;14.80;;;;;;;;;;4945591;28;23323;-57
2022/03/22 12:28:03;;;;;;;18.43;15.10;;;;;;;;;;4946657;28;20454;-62
2022/03/22 12:30:50;;;;;;;19.23;14.70;;;;;;;;;;4943508;28;20449;-58
2022/03/22 12:33:21;;;;;;;17.40;15.60;;;;;;;;;;4941083;28;21369;-56
2022/03/22 12:35:48;;;;;;;19.67;14.93;;;;;;;;;;4941662;28;20477;-55
2022/03/22 12:38:16;;;;;;;17.47;14.83;;;;;;;;;;4940561;28;20479;-56
2022/03/22 12:40:43;;;;;;;21.33;15.73;;;;;;;;;;4938716;28;20581;-56
2022/03/22 12:43:12;;;;;;;19.60;14.53;;;;;;;;;;4939084;28;20479;-57
2022/03/22 12:45:42;;;;;;;19.27;16.27;;;;;;;;;;4938823;28;20442;-56
2022/03/22 12:48:09;;;;;;;18.47;14.67;;;;;;;;;;4940809;28;20925;-54
2022/03/22 12:50:36;;;;;;;19.07;16.37;;;;;;;;;;4941690;28;20742;-56
2022/03/22 12:53:02;;;;;;;20.57;15.83;;;;;;;;;;4937842;28;20985;-56
2022/03/22 12:55:28;;;;;;;18.73;15.87;;;;;;;;;;4941184;28;20482;-56
2022/03/22 12:58:01;;;;;;;20.17;15.00;;;;;;;;;;4940793;28;20477;-58
2022/03/22 13:00:31;;;;;;;21.10;15.73;;;;;;;;;;4938748;28;20524;-57
2022/03/22 13:02:57;;;;;;;19.30;15.10;;;;;;;;;;4937483;28;20768;-56
2022/03/22 13:05:24;;;;;;;16.40;14.60;;;;;;;;;;4939602;28;20491;-56
2022/03/22 13:07:50;;;;;;;17.60;14.37;;;;;;;;;;4935876;28;20521;-57
2022/03/22 13:13:01;;;;;;;17.30;14.67;;;;;;;;;;4940788;28;20477;-57
2022/03/22 13:15:27;;;;;;;17.90;15.00;;;;;;;;;;4938034;28;20996;-57
2022/03/22 13:17:53;;;;;;;16.47;14.40;;;;;;;;;;4940311;28;20446;-56
2022/03/22 13:20:24;;;;;;;15.60;13.97;;;;;;;;;;4939356;28;20187;-57
2022/03/22 13:23:11;;;;;;;16.27;13.50;;;;;;;;;;4939721;28;21035;-57
2022/03/22 13:25:50;;;;;;;20.10;16.17;;;;;;;;;;4945425;28;20449;-56
2022/03/22 13:28:38;;;;;;;16.30;14.60;;;;;;;;;;4942069;28;20953;-57
2022/03/22 13:31:19;;;;;;;17.53;15.67;;;;;;;;;;4942656;28;20634;-57
2022/03/22 13:33:46;;;;;;;20.60;15.73;;;;;;;;;;4941984;28;20465;-57
2022/03/22 13:36:13;;;;;;;15.67;13.97;;;;;;;;;;4941337;28;20509;-57
2022/03/22 13:38:39;;;;;;;22.33;15.87;;;;;;;;;;4928866;28;20454;-57
2022/03/22 13:41:07;;;;;;;18.00;14.10;;;;;;;;;;4927313;28;20482;-59
2022/03/22 13:43:43;;;;;;;20.07;15.77;;;;;;;;;;4938098;28;21077;-56
2022/03/22 13:46:09;;;;;;;19.03;14.23;;;;;;;;;;4942519;28;20589;-56
2022/03/22 13:48:42;;;;;;;21.50;14.83;;;;;;;;;;4941586;28;21163;-55
2022/03/22 13:51:09;;;;;;;14.63;12.33;;;;;;;;;;4936787;28;20456;-57
2022/03/22 13:53:53;;;;;;;19.77;13.53;;;;;;;;;;4939437;28;20482;-57
2022/03/22 13:56:24;;;;;;;16.93;13.87;;;;;;;;;;4938135;28;22196;-56
2022/03/22 13:58:50;;;;;;;13.30;11.23;;;;;;;;;;4944325;28;20478;-57
2022/03/22 14:01:26;;;;;;;14.97;12.63;;;;;;;;;;4931810;28;20450;-56
2022/03/22 14:03:57;;;;;;;19.10;13.80;;;;;;;;;;4943670;28;20430;-56
2022/03/22 14:06:25;;;;;;;16.30;11.70;;;;;;;;;;4942483;28;20438;-57
2022/03/22 14:08:54;;;;;;;17.53;13.87;;;;;;;;;;4928806;28;20466;-57
2022/03/22 14:11:24;;;;;;;16.93;12.03;;;;;;;;;;4945496;28;20446;-57
2022/03/22 14:13:51;;;;;;;17.97;12.00;;;;;;;;;;4942566;28;21116;-57
2022/03/22 14:16:19;;;;;;;15.57;12.00;;;;;;;;;;4946818;28;22027;-57
2022/03/22 14:18:57;;;;;;;18.23;12.20;;;;;;;;;;4938021;28;20651;-57
2022/03/22 14:21:27;;;;;;;14.20;11.80;;;;;;;;;;4942158;28;20438;-56
2022/03/22 14:23:55;;;;;;;17.57;11.63;;;;;;;;;;4939918;28;20631;-58
2022/03/22 14:26:21;;;;;;;12.80;10.50;;;;;;;;;;4940369;28;20807;-56
2022/03/22 14:28:48;;;;;;;14.17;12.10;;;;;;;;;;4939947;28;20536;-56
2022/03/22 14:31:15;;;;;;;15.10;10.83;;;;;;;;;;4942554;28;20441;-55
2022/03/22 14:33:41;;;;;;;12.27;10.13;;;;;;;;;;4940627;28;20441;-56
2022/03/22 14:36:07;;;;;;;18.17;11.40;;;;;;;;;;4940218;28;20501;-56
2022/03/22 14:38:34;;;;;;;17.43;10.60;;;;;;;;;;4941935;28;20921;-56
2022/03/22 14:41:24;;;;;;;15.63;11.20;;;;;;;;;;4943626;28;20651;-56
2022/03/22 14:43:51;;;;;;;17.00;11.00;;;;;;;;;;4940374;28;20458;-56
2022/03/22 14:46:18;;;;;;;15.20;11.90;;;;;;;;;;4943410;28;20439;-55
2022/03/22 14:48:49;;;;;;;15.10;12.27;;;;;;;;;;4946068;28;20460;-55
2022/03/22 14:51:15;;;;;;;18.17;11.73;;;;;;;;;;4944404;28;20439;-56
2022/03/22 14:59:13;;;;;;;13.60;9.80;;;;;;;;;;4944895;28;20454;-57
2022/03/22 15:01:39;;;;;;;16.97;11.33;;;;;;;;;;4945761;28;20443;-56
2022/03/22 15:04:06;;;;;;;14.30;11.30;;;;;;;;;;4945552;28;20450;-57
2022/03/22 15:06:32;;;;;;;20.17;11.50;;;;;;;;;;4941606;28;20603;-57
2022/03/22 15:09:00;;;;;;;17.50;12.87;;;;;;;;;;4940894;28;20451;-56
2022/03/22 15:11:41;;;;;;;19.90;13.40;;;;;;;;;;4942789;28;20443;-56
2022/03/22 15:14:15;;;;;;;21.03;11.87;;;;;;;;;;4940350;28;20524;-56
2022/03/22 15:16:41;;;;;;;17.00;11.80;;;;;;;;;;4943464;28;21341;-57